createdAt,value
2023-10-01T00:01:28.848Z,8.55
2023-10-01T00:04:06.505Z,8.90
2023-10-01T00:06:41.502Z,8.85
2023-10-01T00:09:19.389Z,9.10
2023-10-01T00:11:51.164Z,9.40
2023-10-01T00:14:28.252Z,8.60
2023-10-01T00:17:00.559Z,8.60
2023-10-01T00:19:31.828Z,8.10
2023-10-01T00:22:05.643Z,8.80
2023-10-01T00:24:37.135Z,8.45
2023-10-01T00:27:10.536Z,8.82
2023-10-01T00:29:42.284Z,9.05
2023-10-01T00:32:13.780Z,10.55
2023-10-01T00:34:45.026Z,9.57
2023-10-01T00:37:19.369Z,8.98
2023-10-01T00:39:50.507Z,10.75
2023-10-01T00:42:27.599Z,10.38
2023-10-01T00:44:59.455Z,9.73
2023-10-01T00:47:32.159Z,9.98
2023-10-01T00:50:06.852Z,10.38
2023-10-01T00:52:40.883Z,10.50
2023-10-01T00:55:15.502Z,10.93
2023-10-01T00:57:47.192Z,9.98
2023-10-01T01:00:21.464Z,9.73
2023-10-01T01:03:07.782Z,10.10
2023-10-01T01:05:42.599Z,10.40
2023-10-01T01:08:23.654Z,9.88
2023-10-01T01:10:58.493Z,10.27
2023-10-01T01:13:31.343Z,11.02
2023-10-01T01:16:04.222Z,10.18
2023-10-01T01:18:38.422Z,10.98
2023-10-01T01:21:15.258Z,10.15
2023-10-01T01:26:23.910Z,9.23
2023-10-01T01:28:55.226Z,9.68
2023-10-01T01:31:30.157Z,10.73
2023-10-01T01:34:04.641Z,10.00
2023-10-01T01:36:36.064Z,10.05
2023-10-01T01:39:28.073Z,9.93
2023-10-01T01:41:59.636Z,10.95
2023-10-01T01:44:32.936Z,9.95
2023-10-01T01:47:08.315Z,9.70
2023-10-01T01:49:43.909Z,9.77
2023-10-01T01:52:16.060Z,10.35
2023-10-01T01:54:51.720Z,10.63
2023-10-01T01:57:22.997Z,10.10
2023-10-01T01:59:55.436Z,9.35
2023-10-01T02:02:26.835Z,10.70
2023-10-01T02:05:11.101Z,10.50
2023-10-01T02:07:42.537Z,9.77
2023-10-01T02:10:17.847Z,9.05
2023-10-01T02:12:49.217Z,10.25
2023-10-01T02:15:20.833Z,10.98
2023-10-01T02:17:54.084Z,10.45
2023-10-01T02:20:30.035Z,10.45
2023-10-01T02:23:04.988Z,9.90
2023-10-01T02:25:47.419Z,10.10
2023-10-01T02:28:18.861Z,10.57
2023-10-01T02:30:56.566Z,9.70
2023-10-01T02:33:48.089Z,10.25
2023-10-01T02:36:24.345Z,10.30
2023-10-01T02:38:55.270Z,9.07
2023-10-01T02:41:29.635Z,11.02
2023-10-01T02:43:58.462Z,10.50
2023-10-01T02:46:31.081Z,10.40
2023-10-01T02:49:01.849Z,10.00
2023-10-01T02:51:40.434Z,10.05
2023-10-01T02:54:10.728Z,9.27
2023-10-01T02:56:54.451Z,9.60
2023-10-01T02:59:22.986Z,8.95
2023-10-01T03:01:56.676Z,8.27
2023-10-01T03:04:29.251Z,8.95
2023-10-01T03:07:06.639Z,9.80
2023-10-01T03:09:41.289Z,9.20
2023-10-01T03:12:37.154Z,8.63
2023-10-01T03:15:26.076Z,8.40
2023-10-01T03:17:58.831Z,9.20
2023-10-01T03:20:45.013Z,8.57
2023-10-01T03:23:27.051Z,9.05
2023-10-01T03:26:05.878Z,10.55
2023-10-01T03:28:53.297Z,8.88
2023-10-01T03:33:56.017Z,9.32
2023-10-01T03:36:30.608Z,9.05
2023-10-01T03:39:21.949Z,8.77
2023-10-01T03:42:12.463Z,9.32
2023-10-01T03:44:58.481Z,8.88
2023-10-01T03:47:31.172Z,8.52
2023-10-01T03:50:02.223Z,8.00
2023-10-01T03:52:41.243Z,7.40
2023-10-01T03:55:27.994Z,7.75
2023-10-01T03:58:20.122Z,7.88
2023-10-01T04:01:04.687Z,7.68
2023-10-01T04:03:40.386Z,9.07
2023-10-01T04:06:12.415Z,9.60
2023-10-01T04:08:46.477Z,8.13
2023-10-01T04:11:18.179Z,7.85
2023-10-01T04:14:09.663Z,8.45
2023-10-01T04:16:48.394Z,7.97
2023-10-01T04:19:20.737Z,8.25
2023-10-01T04:21:52.786Z,8.25
2023-10-01T04:24:24.485Z,7.88
2023-10-01T04:26:52.949Z,8.05
2023-10-01T04:29:25.968Z,7.85
2023-10-01T04:32:02.641Z,7.25
2023-10-01T04:34:33.728Z,7.90
2023-10-01T04:37:05.165Z,9.30
2023-10-01T04:39:39.358Z,7.88
2023-10-01T04:42:11.138Z,8.13
2023-10-01T04:44:42.684Z,8.98
2023-10-01T04:47:29.148Z,8.57
2023-10-01T04:50:01.040Z,9.07
2023-10-01T04:52:33.696Z,8.65
2023-10-01T04:55:23.119Z,8.88
2023-10-01T04:57:54.975Z,8.38
2023-10-01T05:00:26.386Z,8.95
2023-10-01T05:03:00.269Z,9.25
2023-10-01T05:05:31.563Z,9.52
2023-10-01T05:08:03.106Z,10.05
2023-10-01T05:10:52.188Z,8.55
2023-10-01T05:13:24.268Z,8.65
2023-10-01T05:15:58.366Z,9.60
2023-10-01T05:18:34.871Z,8.50
2023-10-01T05:21:13.695Z,8.32
2023-10-01T05:23:47.080Z,8.55
2023-10-01T05:26:22.790Z,8.73
2023-10-01T05:28:56.142Z,8.68
2023-10-01T05:31:30.319Z,9.50
2023-10-01T05:34:07.451Z,9.45
2023-10-01T05:36:39.417Z,8.82
2023-10-01T05:39:14.055Z,10.88
2023-10-01T05:41:46.122Z,9.23
2023-10-01T05:44:17.262Z,9.48
2023-10-01T05:46:48.549Z,9.57
2023-10-01T05:49:23.798Z,10.05
2023-10-01T05:51:57.772Z,9.43
2023-10-01T05:54:31.048Z,8.93
2023-10-01T05:57:03.002Z,9.57
2023-10-01T05:59:34.342Z,9.90
2023-10-01T06:02:06.029Z,10.82
2023-10-01T06:04:40.172Z,10.20
2023-10-01T06:07:11.563Z,9.98
2023-10-01T06:09:43.468Z,10.43
2023-10-01T06:12:19.339Z,10.13
2023-10-01T06:14:52.404Z,9.32
2023-10-01T06:17:30.615Z,8.95
2023-10-01T06:20:24.435Z,9.13
2023-10-01T06:22:56.594Z,8.95
2023-10-01T06:25:41.824Z,10.60
2023-10-01T06:28:16.750Z,9.40
2023-10-01T06:30:48.029Z,9.43
2023-10-01T06:33:30.974Z,9.77
2023-10-01T06:36:16.690Z,9.50
2023-10-01T06:38:49.240Z,10.35
2023-10-01T06:41:20.930Z,9.45
2023-10-01T06:43:56.242Z,10.15
2023-10-01T06:46:30.894Z,10.93
2023-10-01T06:49:04.748Z,9.13
2023-10-01T06:51:45.420Z,9.75
2023-10-01T06:54:19.705Z,9.00
2023-10-01T06:56:52.346Z,10.02
2023-10-01T06:59:29.234Z,10.27
2023-10-01T07:04:33.705Z,9.48
2023-10-01T07:07:21.772Z,9.48
2023-10-01T07:09:55.256Z,8.95
2023-10-01T07:12:26.560Z,9.27
2023-10-01T07:14:58.630Z,8.90
2023-10-01T07:17:30.380Z,8.70
2023-10-01T07:20:20.804Z,9.02
2023-10-01T07:22:58.064Z,9.70
2023-10-01T07:25:45.008Z,9.48
2023-10-01T07:28:20.518Z,9.17
2023-10-01T07:30:57.931Z,8.68
2023-10-01T07:36:03.796Z,8.90
2023-10-01T07:38:48.991Z,8.77
2023-10-01T07:41:21.838Z,8.15
2023-10-01T07:43:55.499Z,8.38
2023-10-01T07:46:27.649Z,8.35
2023-10-01T07:49:02.374Z,8.85
2023-10-01T07:51:37.604Z,7.95
2023-10-01T07:54:24.017Z,8.48
2023-10-01T07:56:57.873Z,8.00
2023-10-01T07:59:36.054Z,8.77
2023-10-01T08:02:21.758Z,8.82
2023-10-01T08:04:59.675Z,8.57
2023-10-01T08:07:41.760Z,8.35
2023-10-01T08:10:21.016Z,8.77
2023-10-01T08:13:07.971Z,8.38
2023-10-01T08:15:59.590Z,8.07
2023-10-01T08:18:37.209Z,8.70
2023-10-01T08:21:17.247Z,8.63
2023-10-01T08:23:56.333Z,8.20
2023-10-01T08:26:45.085Z,8.05
2023-10-01T08:29:17.489Z,9.13
2023-10-01T08:32:00.778Z,8.20
2023-10-01T08:34:51.936Z,8.50
2023-10-01T08:37:24.474Z,8.57
2023-10-01T08:39:57.646Z,8.63
2023-10-01T08:42:35.161Z,8.27
2023-10-01T08:45:13.173Z,7.70
2023-10-01T08:47:46.792Z,8.30
2023-10-01T08:50:42.702Z,8.38
2023-10-01T08:53:18.362Z,8.27
2023-10-01T08:56:01.773Z,8.38
2023-10-01T08:58:56.828Z,8.10
2023-10-01T09:01:32.770Z,8.15
2023-10-01T09:04:24.260Z,7.85
2023-10-01T09:07:01.177Z,8.13
2023-10-01T09:09:53.332Z,8.07
2023-10-01T09:12:26.059Z,8.30
2023-10-01T09:15:00.977Z,7.50
2023-10-01T09:17:41.961Z,7.70
2023-10-01T09:20:19.260Z,7.32
2023-10-01T09:23:03.324Z,7.72
2023-10-01T09:25:36.245Z,8.68
2023-10-01T09:28:21.569Z,7.88
2023-10-01T09:31:26.546Z,8.05
2023-10-01T09:33:57.715Z,7.35
2023-10-01T09:36:47.570Z,8.57
2023-10-01T09:39:24.526Z,7.85
2023-10-01T09:44:30.453Z,8.57
2023-10-01T09:47:12.189Z,7.55
2023-10-01T09:49:44.031Z,7.30
2023-10-01T09:52:28.662Z,7.68
2023-10-01T09:55:07.795Z,7.78
2023-10-01T09:57:40.879Z,7.13
2023-10-01T10:00:41.399Z,7.78
2023-10-01T10:03:18.554Z,7.03
2023-10-01T10:05:50.111Z,7.25
2023-10-01T10:08:28.593Z,7.38
2023-10-01T10:11:01.372Z,7.63
2023-10-01T10:13:38.475Z,7.57
2023-10-01T10:16:23.002Z,7.95
2023-10-01T10:19:14.613Z,6.82
2023-10-01T10:22:18.576Z,6.45
2023-10-01T10:24:56.501Z,7.13
2023-10-01T10:27:52.764Z,7.53
2023-10-01T10:30:29.295Z,6.63
2023-10-01T10:33:44.906Z,7.25
2023-10-01T10:36:52.175Z,6.72
2023-10-01T10:39:54.709Z,7.18
2023-10-01T10:42:30.255Z,7.25
2023-10-01T10:45:25.735Z,7.10
2023-10-01T10:48:01.350Z,6.63
2023-10-01T10:50:51.663Z,7.32
2023-10-01T10:53:31.389Z,6.80
2023-10-01T10:56:07.752Z,6.78
2023-10-01T10:58:42.241Z,7.22
2023-10-01T11:01:20.985Z,7.15
2023-10-01T11:03:56.290Z,7.57
2023-10-01T11:06:31.542Z,7.00
2023-10-01T11:09:24.184Z,6.47
2023-10-01T11:11:56.185Z,6.90
2023-10-01T11:14:27.212Z,6.13
2023-10-01T11:16:58.374Z,5.95
2023-10-01T11:19:29.700Z,6.15
2023-10-01T11:22:02.731Z,5.97
2023-10-01T11:24:38.680Z,6.03
2023-10-01T11:27:24.478Z,5.87
2023-10-01T11:30:15.074Z,5.85
2023-10-01T11:33:05.036Z,6.25
2023-10-01T11:35:37.941Z,6.43
2023-10-01T11:38:14.021Z,6.45
2023-10-01T11:41:00.008Z,5.20
2023-10-01T11:43:40.589Z,5.55
2023-10-01T11:46:31.504Z,5.45
2023-10-01T11:49:16.903Z,6.80
2023-10-01T11:51:49.777Z,6.35
2023-10-01T11:54:22.515Z,6.18
2023-10-01T11:57:06.625Z,6.45
2023-10-01T11:59:42.634Z,5.88
2023-10-01T12:02:23.385Z,6.32
2023-10-01T12:04:59.193Z,5.72
2023-10-01T12:07:34.735Z,5.30
2023-10-01T12:10:07.919Z,5.75
2023-10-01T12:12:41.630Z,5.70
2023-10-01T12:15:26.323Z,5.40
2023-10-01T12:17:57.518Z,4.72
2023-10-01T12:20:30.671Z,4.78
2023-10-01T12:23:12.793Z,4.10
2023-10-01T12:25:49.664Z,4.72
2023-10-01T12:28:29.194Z,5.93
2023-10-01T12:31:03.707Z,5.50
2023-10-01T12:33:45.336Z,5.47
2023-10-01T12:36:29.494Z,4.68
2023-10-01T12:39:18.553Z,5.43
2023-10-01T12:41:58.308Z,5.85
2023-10-01T12:44:32.540Z,5.13
2023-10-01T12:47:02.424Z,4.63
2023-10-01T12:49:34.738Z,5.03
2023-10-01T12:52:03.390Z,4.53
2023-10-01T12:54:38.736Z,4.13
2023-10-01T12:57:11.277Z,4.22
2023-10-01T12:59:48.069Z,4.50
2023-10-01T13:02:25.155Z,4.65
2023-10-01T13:05:09.817Z,4.10
2023-10-01T13:07:41.893Z,3.50
2023-10-01T13:10:12.365Z,4.88
2023-10-01T13:12:55.325Z,4.25
2023-10-01T13:15:35.416Z,3.53
2023-10-01T13:18:13.596Z,3.45
2023-10-01T13:20:49.870Z,3.88
2023-10-01T13:23:25.895Z,3.72
2023-10-01T13:26:07.626Z,3.70
2023-10-01T13:28:59.541Z,4.30
2023-10-01T13:31:42.432Z,3.97
2023-10-01T13:34:22.978Z,4.35
2023-10-01T13:37:06.446Z,3.22
2023-10-01T13:39:53.800Z,4.38
2023-10-01T13:45:21.569Z,2.88
2023-10-01T13:48:07.570Z,4.03
2023-10-01T13:50:52.744Z,3.30
2023-10-01T13:53:36.077Z,3.15
2023-10-01T13:56:19.538Z,4.38
2023-10-01T13:59:03.422Z,3.42
2023-10-01T14:01:47.116Z,3.58
2023-10-01T14:04:33.061Z,3.65
2023-10-01T14:07:16.418Z,3.60
2023-10-01T14:09:55.951Z,3.35
2023-10-01T14:12:40.735Z,4.13
2023-10-01T14:15:26.471Z,4.30
2023-10-01T14:17:59.912Z,3.40
2023-10-01T14:20:48.324Z,4.00
2023-10-01T14:23:41.784Z,4.07
2023-10-01T14:26:22.408Z,2.70
2023-10-01T14:28:57.273Z,3.97
2023-10-01T14:31:42.675Z,3.78
2023-10-01T14:34:14.054Z,2.88
2023-10-01T14:36:47.953Z,4.22
2023-10-01T14:39:20.003Z,3.28
2023-10-01T14:41:52.246Z,4.10
2023-10-01T14:44:26.426Z,3.45
2023-10-01T14:46:59.982Z,2.63
2023-10-01T14:49:31.461Z,3.50
2023-10-01T14:52:06.214Z,3.65
2023-10-01T14:54:39.221Z,3.65
2023-10-01T14:57:10.373Z,3.78
2023-10-01T14:59:44.439Z,3.42
2023-10-01T15:02:17.182Z,3.65
2023-10-01T15:04:48.537Z,3.10
2023-10-01T15:07:23.518Z,3.08
2023-10-01T15:10:06.879Z,3.55
2023-10-01T15:13:02.785Z,3.70
2023-10-01T15:15:51.760Z,3.30
2023-10-01T15:18:36.751Z,2.80
2023-10-01T15:21:19.331Z,3.40
2023-10-01T15:24:01.042Z,3.35
2023-10-01T15:26:33.431Z,3.15
2023-10-01T15:29:07.028Z,3.67
2023-10-01T15:31:38.188Z,3.70
2023-10-01T15:34:17.373Z,3.00
2023-10-01T15:36:51.670Z,3.03
2023-10-01T15:39:38.244Z,3.10
2023-10-01T15:42:14.032Z,3.20
2023-10-01T15:44:49.393Z,3.42
2023-10-01T15:47:33.955Z,3.17
2023-10-01T15:50:10.226Z,2.72
2023-10-01T15:52:48.031Z,3.10
2023-10-01T15:55:33.443Z,2.63
2023-10-01T15:58:06.706Z,3.25
2023-10-01T16:00:39.615Z,2.95
2023-10-01T16:03:13.783Z,2.97
2023-10-01T16:05:47.395Z,3.00
2023-10-01T16:08:22.152Z,2.90
2023-10-01T16:11:01.485Z,3.20
2023-10-01T16:13:34.750Z,3.20
2023-10-01T16:16:09.361Z,3.05
2023-10-01T16:18:46.189Z,3.20
2023-10-01T16:21:22.011Z,2.97
2023-10-01T16:23:57.840Z,3.72
2023-10-01T16:26:34.578Z,3.07
2023-10-01T16:34:17.882Z,2.65
2023-10-01T16:36:51.369Z,2.97
2023-10-01T16:39:22.439Z,2.72
2023-10-01T16:41:57.137Z,3.10
2023-10-01T16:44:31.755Z,2.65
2023-10-01T16:47:05.858Z,3.70
2023-10-01T16:49:37.040Z,3.08
2023-10-01T16:52:09.477Z,3.00
2023-10-01T16:54:43.380Z,3.35
2023-10-01T16:57:27.021Z,3.05
2023-10-01T16:59:58.779Z,3.33
2023-10-01T17:02:33.166Z,3.05
2023-10-01T17:05:09.128Z,3.92
2023-10-01T17:07:43.430Z,3.22
2023-10-01T17:10:18.943Z,3.60
2023-10-01T17:12:52.701Z,3.28
2023-10-01T17:15:43.611Z,3.53
2023-10-01T17:18:20.882Z,3.35
2023-10-01T17:20:54.863Z,3.38
2023-10-01T17:23:26.449Z,2.85
2023-10-01T17:26:02.243Z,2.90
2023-10-01T17:28:57.066Z,2.60
2023-10-01T17:31:41.630Z,2.90
2023-10-01T17:34:13.060Z,3.10
2023-10-01T17:36:44.698Z,3.40
2023-10-01T17:39:26.982Z,3.38
2023-10-01T17:42:03.351Z,2.97
2023-10-01T17:44:41.962Z,2.83
2023-10-01T17:47:14.058Z,3.17
2023-10-01T17:49:49.858Z,3.90
2023-10-01T17:52:28.835Z,2.65
2023-10-01T17:55:04.846Z,3.47
2023-10-01T17:57:46.476Z,3.03
2023-10-01T18:00:43.109Z,3.13
2023-10-01T18:03:17.922Z,2.97
2023-10-01T18:06:00.665Z,3.38
2023-10-01T18:08:32.797Z,2.85
2023-10-01T18:11:11.431Z,2.80
2023-10-01T18:13:44.416Z,3.08
2023-10-01T18:16:27.348Z,2.78
2023-10-01T18:19:08.489Z,2.92
2023-10-01T18:21:41.069Z,3.63
2023-10-01T18:24:12.371Z,3.40
2023-10-01T18:26:47.333Z,5.03
2023-10-01T18:29:20.960Z,5.68
2023-10-01T18:31:55.825Z,5.00
2023-10-01T18:34:27.453Z,3.95
2023-10-01T18:37:02.913Z,2.90
2023-10-01T18:39:39.400Z,3.35
2023-10-01T18:42:10.875Z,3.28
2023-10-01T18:44:42.125Z,3.33
2023-10-01T18:47:19.390Z,4.93
2023-10-01T18:49:51.041Z,5.55
2023-10-01T18:52:24.281Z,6.68
2023-10-01T18:54:56.342Z,4.95
2023-10-01T18:57:27.888Z,5.20
2023-10-01T19:00:07.112Z,4.53
2023-10-01T19:02:41.133Z,4.72
2023-10-01T19:05:17.049Z,4.88
2023-10-01T19:07:48.618Z,4.80
2023-10-01T19:10:20.488Z,4.05
2023-10-01T19:12:52.327Z,3.95
2023-10-01T19:15:23.937Z,4.43
2023-10-01T19:17:58.895Z,3.42
2023-10-01T19:20:31.752Z,3.42
2023-10-01T19:23:03.803Z,3.80
2023-10-01T19:25:39.634Z,3.17
2023-10-01T19:28:16.363Z,3.85
2023-10-01T19:30:51.932Z,3.92
2023-10-01T19:33:27.324Z,3.97
2023-10-01T19:35:58.828Z,4.80
2023-10-01T19:38:30.736Z,4.47
2023-10-01T19:41:02.332Z,4.07
2023-10-01T19:43:34.016Z,4.68
2023-10-01T19:46:08.496Z,4.97
2023-10-01T19:48:50.400Z,4.43
2023-10-01T19:51:29.365Z,4.53
2023-10-01T19:54:11.354Z,4.85
2023-10-01T19:56:57.278Z,4.13
2023-10-01T19:59:35.622Z,4.75
2023-10-01T20:02:09.023Z,4.22
2023-10-01T20:10:33.420Z,3.80
2023-10-01T20:13:05.744Z,3.75
2023-10-01T20:15:37.703Z,4.10
2023-10-01T20:18:12.789Z,3.13
2023-10-01T20:20:50.058Z,3.67
2023-10-01T20:23:24.996Z,4.00
2023-10-01T20:25:58.984Z,4.00
2023-10-01T20:28:33.553Z,3.95
2023-10-01T20:31:06.204Z,4.28
2023-10-01T20:33:38.319Z,3.80
2023-10-01T20:36:12.340Z,4.10
2023-10-01T20:38:50.850Z,3.83
2023-10-01T20:41:23.029Z,3.85
2023-10-01T20:50:01.888Z,3.63
2023-10-01T20:52:36.780Z,3.80
2023-10-01T20:55:19.797Z,3.60
2023-10-01T20:57:53.415Z,3.50
2023-10-01T21:00:39.963Z,3.58
2023-10-01T21:03:11.927Z,3.17
2023-10-01T21:05:44.432Z,4.45
2023-10-01T21:08:22.257Z,4.55
2023-10-01T21:10:54.061Z,3.63
2023-10-01T21:13:30.668Z,3.90
2023-10-01T21:16:05.959Z,3.67
2023-10-01T21:18:38.590Z,3.55
2023-10-01T21:21:12.613Z,3.35
2023-10-01T21:23:46.075Z,3.97
2023-10-01T21:26:25.446Z,3.50
2023-10-01T21:29:05.532Z,3.08
2023-10-01T21:31:38.783Z,3.38
2023-10-01T21:34:16.694Z,3.22
2023-10-01T21:36:48.292Z,3.17
2023-10-01T21:39:24.763Z,3.13
2023-10-01T21:42:02.274Z,3.20
2023-10-01T21:44:33.454Z,3.45
2023-10-01T21:47:08.642Z,3.22
2023-10-01T21:49:49.477Z,3.22
2023-10-01T21:52:24.489Z,3.28
2023-10-01T21:54:58.832Z,2.97
2023-10-01T21:57:29.879Z,3.65
2023-10-01T22:00:00.820Z,3.03
2023-10-01T22:02:29.295Z,3.15
2023-10-01T22:05:00.831Z,2.63
2023-10-01T22:07:32.590Z,3.13
2023-10-01T22:10:08.450Z,2.80
2023-10-01T22:12:49.488Z,3.47
2023-10-01T22:15:29.490Z,3.10
2023-10-01T22:18:00.533Z,3.17
2023-10-01T22:20:35.932Z,2.97
2023-10-01T22:23:08.596Z,3.35
2023-10-01T22:25:43.864Z,3.22
2023-10-01T22:28:15.495Z,3.40
2023-10-01T22:30:47.348Z,3.17
2023-10-01T22:33:18.991Z,3.75
2023-10-01T22:35:50.078Z,3.35
2023-10-01T22:38:21.270Z,3.03
2023-10-01T22:40:57.529Z,2.80
2023-10-01T22:43:31.549Z,3.28
2023-10-01T22:46:09.200Z,2.97
2023-10-01T22:48:49.773Z,2.97
2023-10-01T22:51:25.933Z,3.10
2023-10-01T22:54:01.466Z,3.35
2023-10-01T22:56:35.582Z,3.05
2023-10-01T22:59:09.141Z,2.75
2023-10-01T23:01:40.481Z,2.88
2023-10-01T23:04:18.195Z,3.15
2023-10-01T23:06:49.745Z,2.47
2023-10-01T23:09:23.290Z,2.58
2023-10-01T23:11:57.746Z,3.45
2023-10-01T23:14:41.730Z,2.95
2023-10-01T23:17:32.783Z,2.63
2023-10-01T23:20:04.036Z,2.70
2023-10-01T23:22:36.916Z,2.80
2023-10-01T23:25:11.275Z,3.30
2023-10-01T23:28:00.699Z,2.97
2023-10-01T23:30:41.876Z,2.67
2023-10-01T23:33:13.399Z,2.83
2023-10-01T23:36:00.740Z,2.60
2023-10-01T23:38:38.228Z,2.40
2023-10-01T23:41:29.880Z,2.83
2023-10-01T23:44:04.157Z,2.60
2023-10-01T23:46:40.529Z,2.58
2023-10-01T23:49:13.437Z,2.85
2023-10-01T23:51:55.541Z,2.53
2023-10-01T23:54:30.649Z,2.20
2023-10-01T23:57:02.318Z,2.60
2023-10-01T23:59:38.447Z,2.20
